createdAt,value
2022-08-17T17:49:19.740Z,3.65
2022-08-17T17:52:10.816Z,2.70
2022-08-17T17:55:03.506Z,2.80
2022-08-17T17:57:58.638Z,2.90
2022-08-17T18:00:31.031Z,2.50
2022-08-17T18:03:50.786Z,3.13
2022-08-17T18:12:20.589Z,4.05
2022-08-17T18:15:07.595Z,4.22
2022-08-17T18:17:36.232Z,3.85
2022-08-17T18:20:06.915Z,3.88
2022-08-17T18:22:34.106Z,4.07
2022-08-17T18:25:00.809Z,3.83
2022-08-17T18:27:27.596Z,3.63
2022-08-17T18:29:55.991Z,4.57
2022-08-17T18:32:42.027Z,4.15
2022-08-17T18:35:08.590Z,4.05
2022-08-17T18:37:55.650Z,3.90
2022-08-17T18:40:36.614Z,3.88
2022-08-17T18:43:13.763Z,4.93
2022-08-17T18:45:49.309Z,4.30
2022-08-17T18:48:21.859Z,3.72
2022-08-17T18:50:51.474Z,4.35
2022-08-17T18:53:38.699Z,4.28
2022-08-17T18:56:23.382Z,3.92
2022-08-17T18:58:52.373Z,4.10
2022-08-17T19:01:21.394Z,4.00
2022-08-17T19:03:49.748Z,3.92
2022-08-17T19:06:30.530Z,4.35
2022-08-17T19:08:58.156Z,4.13
2022-08-17T19:11:32.915Z,4.10
2022-08-17T19:14:13.721Z,4.40
2022-08-17T19:16:40.366Z,4.53
2022-08-17T19:19:16.300Z,4.53
2022-08-17T19:21:58.965Z,4.28
2022-08-17T19:24:27.708Z,3.70
2022-08-17T19:27:11.408Z,4.28
2022-08-17T19:29:55.256Z,3.72
2022-08-17T19:32:25.886Z,4.10
2022-08-17T19:34:52.773Z,4.20
2022-08-17T19:37:51.846Z,4.60
2022-08-17T19:40:52.156Z,3.83
2022-08-17T19:43:30.879Z,4.43
2022-08-17T19:46:15.647Z,4.63
2022-08-17T19:49:03.178Z,4.22
2022-08-17T19:51:54.443Z,4.47
2022-08-17T19:55:08.643Z,4.40
2022-08-17T19:58:02.224Z,4.20
2022-08-17T20:00:31.158Z,4.43
2022-08-17T20:03:05.619Z,4.65
2022-08-17T20:06:08.472Z,4.90
2022-08-17T20:08:48.036Z,4.97
2022-08-17T20:11:19.265Z,4.90
2022-08-17T20:14:12.213Z,4.15
2022-08-17T20:16:38.762Z,4.20
2022-08-17T20:19:10.633Z,4.13
2022-08-17T20:21:50.126Z,4.75
2022-08-17T20:24:40.231Z,4.75
2022-08-17T20:27:17.170Z,4.30
2022-08-17T20:30:02.956Z,4.70
2022-08-17T20:32:53.223Z,4.80
2022-08-17T20:35:20.235Z,4.68
2022-08-17T20:37:53.481Z,5.47
2022-08-17T20:40:25.793Z,4.85
2022-08-17T20:42:52.473Z,4.75
2022-08-17T20:45:21.689Z,4.75
2022-08-17T20:48:18.720Z,5.13
2022-08-17T20:50:43.400Z,4.80
2022-08-17T20:53:13.555Z,4.57
2022-08-17T20:55:52.556Z,6.05
2022-08-17T20:58:21.164Z,4.72
2022-08-17T21:00:56.539Z,5.35
2022-08-17T21:03:23.438Z,5.10
2022-08-17T21:05:57.414Z,5.38
2022-08-17T21:08:29.400Z,5.45
2022-08-17T21:10:57.476Z,5.50
2022-08-17T21:14:10.159Z,5.22
2022-08-17T21:16:46.916Z,5.53
2022-08-17T21:19:30.942Z,5.15
2022-08-17T21:22:07.623Z,6.13
2022-08-17T21:24:48.575Z,5.38
2022-08-17T21:27:54.264Z,5.57
2022-08-17T21:30:29.015Z,7.00
2022-08-17T21:33:17.918Z,5.93
2022-08-17T21:36:14.177Z,5.88
2022-08-17T21:38:57.410Z,5.63
2022-08-17T21:41:34.241Z,6.20
2022-08-17T21:44:19.315Z,6.13
2022-08-17T21:46:49.341Z,6.13
2022-08-17T21:49:19.405Z,6.40
2022-08-17T21:51:49.957Z,5.70
2022-08-17T21:54:38.869Z,5.90
2022-08-17T21:57:08.150Z,6.28
2022-08-17T21:59:38.089Z,6.20
2022-08-17T22:02:06.096Z,6.82
2022-08-17T22:04:37.857Z,6.45
2022-08-17T22:07:07.767Z,6.80
2022-08-17T22:09:46.082Z,7.00
2022-08-17T22:12:17.590Z,7.03
2022-08-17T22:14:52.180Z,7.57
2022-08-17T22:17:26.876Z,7.13
2022-08-17T22:19:56.554Z,7.00
2022-08-17T22:22:57.121Z,7.20
2022-08-17T22:25:25.423Z,7.10
2022-08-17T22:27:56.923Z,5.97
2022-08-17T22:30:32.039Z,5.40
2022-08-17T22:32:59.689Z,4.78
2022-08-17T22:35:34.919Z,4.43
2022-08-17T22:38:19.951Z,4.97
2022-08-17T22:40:51.131Z,4.55
2022-08-17T22:43:24.207Z,5.32
2022-08-17T22:45:55.433Z,4.20
2022-08-17T22:48:27.230Z,4.22
2022-08-17T22:51:12.593Z,4.70
2022-08-17T22:54:05.183Z,4.68
2022-08-17T22:56:50.361Z,4.20
2022-08-17T22:59:41.515Z,4.43
2022-08-17T23:02:24.834Z,4.72
2022-08-17T23:05:15.689Z,4.47
2022-08-17T23:07:44.527Z,5.28
2022-08-17T23:10:12.222Z,4.57
2022-08-17T23:15:14.255Z,5.15
2022-08-17T23:17:42.114Z,4.90
2022-08-17T23:20:12.672Z,5.32
2022-08-17T23:22:51.710Z,5.25
2022-08-17T23:25:29.242Z,5.43
2022-08-17T23:27:57.595Z,5.82
2022-08-17T23:30:30.682Z,5.60
2022-08-17T23:33:05.008Z,5.57
2022-08-17T23:35:40.335Z,5.72
2022-08-17T23:38:10.991Z,6.10
2022-08-17T23:40:37.873Z,6.28
2022-08-17T23:43:23.457Z,6.00
2022-08-17T23:45:53.422Z,5.78
2022-08-17T23:48:32.437Z,5.50
2022-08-17T23:51:14.093Z,6.22
2022-08-17T23:53:47.283Z,5.68
2022-08-17T23:56:14.540Z,6.22
2022-08-17T23:58:42.617Z,6.13
